sensor_id;sensor_type;location;lat;lon;timestamp;temperature;humidity
37232;DHT22;23125;48.156;15.954;2022-12-07T00:01:38;8.90;61.00
37232;DHT22;23125;48.156;15.954;2022-12-07T00:04:05;8.90;61.00
37232;DHT22;23125;48.156;15.954;2022-12-07T00:06:39;8.90;61.10
37232;DHT22;23125;48.156;15.954;2022-12-07T00:09:08;8.90;61.10
37232;DHT22;23125;48.156;15.954;2022-12-07T00:11:35;9.00;61.10
37232;DHT22;23125;48.156;15.954;2022-12-07T00:14:03;9.00;61.10
37232;DHT22;23125;48.156;15.954;2022-12-07T00:16:32;8.90;61.00
37232;DHT22;23125;48.156;15.954;2022-12-07T00:18:58;8.90;61.00
37232;DHT22;23125;48.156;15.954;2022-12-07T00:21:27;9.00;61.00
37232;DHT22;23125;48.156;15.954;2022-12-07T00:23:55;9.00;61.10
37232;DHT22;23125;48.156;15.954;2022-12-07T00:26:33;9.00;61.10
37232;DHT22;23125;48.156;15.954;2022-12-07T00:29:03;9.00;61.10
37232;DHT22;23125;48.156;15.954;2022-12-07T00:31:34;9.00;61.10
37232;DHT22;23125;48.156;15.954;2022-12-07T00:34:05;9.00;61.10
37232;DHT22;23125;48.156;15.954;2022-12-07T00:36:32;9.00;61.10
37232;DHT22;23125;48.156;15.954;2022-12-07T00:38:59;9.00;61.10
37232;DHT22;23125;48.156;15.954;2022-12-07T00:41:26;9.00;61.10
37232;DHT22;23125;48.156;15.954;2022-12-07T00:43:53;9.00;61.10
37232;DHT22;23125;48.156;15.954;2022-12-07T00:46:20;8.90;61.10
37232;DHT22;23125;48.156;15.954;2022-12-07T00:48:47;8.90;61.10
37232;DHT22;23125;48.156;15.954;2022-12-07T00:51:15;9.00;61.10
37232;DHT22;23125;48.156;15.954;2022-12-07T00:53:41;8.90;61.10
37232;DHT22;23125;48.156;15.954;2022-12-07T00:56:14;9.00;61.10
37232;DHT22;23125;48.156;15.954;2022-12-07T00:58:40;8.90;61.10
37232;DHT22;23125;48.156;15.954;2022-12-07T01:01:08;8.90;61.10
37232;DHT22;23125;48.156;15.954;2022-12-07T01:03:35;8.90;61.10
37232;DHT22;23125;48.156;15.954;2022-12-07T01:06:03;8.90;61.10
37232;DHT22;23125;48.156;15.954;2022-12-07T01:08:29;8.90;61.20
37232;DHT22;23125;48.156;15.954;2022-12-07T01:11:00;8.90;61.20
37232;DHT22;23125;48.156;15.954;2022-12-07T01:13:26;8.90;61.20
37232;DHT22;23125;48.156;15.954;2022-12-07T01:15:57;8.90;61.20
37232;DHT22;23125;48.156;15.954;2022-12-07T01:18:26;8.90;61.20
37232;DHT22;23125;48.156;15.954;2022-12-07T01:21:20;8.90;61.20
37232;DHT22;23125;48.156;15.954;2022-12-07T01:23:47;8.90;61.10
37232;DHT22;23125;48.156;15.954;2022-12-07T01:26:16;8.90;61.10
37232;DHT22;23125;48.156;15.954;2022-12-07T01:28:43;8.90;61.20
37232;DHT22;23125;48.156;15.954;2022-12-07T01:31:16;8.90;61.30
37232;DHT22;23125;48.156;15.954;2022-12-07T01:33:44;8.90;61.30
37232;DHT22;23125;48.156;15.954;2022-12-07T01:36:25;8.90;61.30
37232;DHT22;23125;48.156;15.954;2022-12-07T01:38:55;8.90;61.40
37232;DHT22;23125;48.156;15.954;2022-12-07T01:41:23;8.90;61.40
37232;DHT22;23125;48.156;15.954;2022-12-07T01:46:36;8.90;61.40
37232;DHT22;23125;48.156;15.954;2022-12-07T01:49:04;8.90;61.30
37232;DHT22;23125;48.156;15.954;2022-12-07T01:51:31;8.90;61.30
37232;DHT22;23125;48.156;15.954;2022-12-07T01:53:58;8.90;61.30
37232;DHT22;23125;48.156;15.954;2022-12-07T01:56:27;8.90;61.40
37232;DHT22;23125;48.156;15.954;2022-12-07T01:58:55;8.90;61.40
37232;DHT22;23125;48.156;15.954;2022-12-07T02:01:22;8.90;61.40
37232;DHT22;23125;48.156;15.954;2022-12-07T02:03:48;8.90;61.40
37232;DHT22;23125;48.156;15.954;2022-12-07T02:06:19;8.90;61.50
37232;DHT22;23125;48.156;15.954;2022-12-07T02:08:47;8.90;62.20
37232;DHT22;23125;48.156;15.954;2022-12-07T02:11:13;8.90;61.50
37232;DHT22;23125;48.156;15.954;2022-12-07T02:13:40;8.90;61.50
37232;DHT22;23125;48.156;15.954;2022-12-07T02:16:29;8.90;61.50
37232;DHT22;23125;48.156;15.954;2022-12-07T02:24:53;8.90;61.50
37232;DHT22;23125;48.156;15.954;2022-12-07T02:30:22;8.90;61.60
37232;DHT22;23125;48.156;15.954;2022-12-07T02:40:52;8.90;61.60
37232;DHT22;23125;48.156;15.954;2022-12-07T02:43:24;8.90;61.60
37232;DHT22;23125;48.156;15.954;2022-12-07T02:45:52;8.90;61.60
37232;DHT22;23125;48.156;15.954;2022-12-07T02:48:20;8.90;61.60
37232;DHT22;23125;48.156;15.954;2022-12-07T02:50:53;8.90;61.60
37232;DHT22;23125;48.156;15.954;2022-12-07T02:56:00;8.90;61.60
37232;DHT22;23125;48.156;15.954;2022-12-07T02:58:59;8.90;61.70
37232;DHT22;23125;48.156;15.954;2022-12-07T03:02:25;8.90;61.70
37232;DHT22;23125;48.156;15.954;2022-12-07T03:07:35;8.90;61.70
37232;DHT22;23125;48.156;15.954;2022-12-07T03:10:23;8.90;61.80
37232;DHT22;23125;48.156;15.954;2022-12-07T03:13:01;8.90;61.70
37232;DHT22;23125;48.156;15.954;2022-12-07T03:15:52;8.90;61.70
37232;DHT22;23125;48.156;15.954;2022-12-07T03:18:22;8.90;61.80
37232;DHT22;23125;48.156;15.954;2022-12-07T03:20:53;8.80;61.70
37232;DHT22;23125;48.156;15.954;2022-12-07T03:23:21;8.90;61.80
37232;DHT22;23125;48.156;15.954;2022-12-07T03:25:53;8.90;61.80
37232;DHT22;23125;48.156;15.954;2022-12-07T03:28:24;8.90;61.90
37232;DHT22;23125;48.156;15.954;2022-12-07T03:31:02;8.90;61.90
37232;DHT22;23125;48.156;15.954;2022-12-07T03:33:41;8.90;62.00
37232;DHT22;23125;48.156;15.954;2022-12-07T03:36:14;8.90;61.90
37232;DHT22;23125;48.156;15.954;2022-12-07T03:39:12;8.90;61.90
37232;DHT22;23125;48.156;15.954;2022-12-07T03:41:35;8.90;61.80
37232;DHT22;23125;48.156;15.954;2022-12-07T03:44:03;8.90;61.70
37232;DHT22;23125;48.156;15.954;2022-12-07T03:49:25;8.90;61.90
37232;DHT22;23125;48.156;15.954;2022-12-07T03:52:00;8.90;61.90
37232;DHT22;23125;48.156;15.954;2022-12-07T03:55:05;8.90;61.80
37232;DHT22;23125;48.156;15.954;2022-12-07T03:57:28;8.90;61.90
37232;DHT22;23125;48.156;15.954;2022-12-07T03:59:57;8.90;61.90
37232;DHT22;23125;48.156;15.954;2022-12-07T04:02:26;8.90;62.00
37232;DHT22;23125;48.156;15.954;2022-12-07T04:04:52;8.90;62.00
37232;DHT22;23125;48.156;15.954;2022-12-07T04:07:18;8.90;62.00
37232;DHT22;23125;48.156;15.954;2022-12-07T04:09:45;8.90;62.00
37232;DHT22;23125;48.156;15.954;2022-12-07T04:12:11;8.90;62.00
37232;DHT22;23125;48.156;15.954;2022-12-07T04:14:36;8.90;62.00
37232;DHT22;23125;48.156;15.954;2022-12-07T04:17:02;8.90;62.10
37232;DHT22;23125;48.156;15.954;2022-12-07T04:19:31;8.90;62.00
37232;DHT22;23125;48.156;15.954;2022-12-07T04:21:59;8.90;62.00
37232;DHT22;23125;48.156;15.954;2022-12-07T04:24:26;8.90;62.00
37232;DHT22;23125;48.156;15.954;2022-12-07T04:26:52;8.90;62.00
37232;DHT22;23125;48.156;15.954;2022-12-07T04:29:19;8.90;62.10
37232;DHT22;23125;48.156;15.954;2022-12-07T04:31:45;8.90;62.10
37232;DHT22;23125;48.156;15.954;2022-12-07T04:34:12;8.90;62.00
37232;DHT22;23125;48.156;15.954;2022-12-07T04:36:39;8.90;62.00
37232;DHT22;23125;48.156;15.954;2022-12-07T04:39:06;8.90;62.00
37232;DHT22;23125;48.156;15.954;2022-12-07T04:41:33;8.90;62.00
37232;DHT22;23125;48.156;15.954;2022-12-07T04:44:03;8.90;62.00
37232;DHT22;23125;48.156;15.954;2022-12-07T04:46:31;8.90;62.00
37232;DHT22;23125;48.156;15.954;2022-12-07T04:48:57;8.90;61.90
37232;DHT22;23125;48.156;15.954;2022-12-07T04:51:28;8.90;61.80
37232;DHT22;23125;48.156;15.954;2022-12-07T04:53:55;8.90;61.80
37232;DHT22;23125;48.156;15.954;2022-12-07T04:56:22;8.90;61.90
37232;DHT22;23125;48.156;15.954;2022-12-07T04:58:49;8.90;61.90
37232;DHT22;23125;48.156;15.954;2022-12-07T05:01:17;8.90;61.90
37232;DHT22;23125;48.156;15.954;2022-12-07T05:03:44;8.90;61.90
37232;DHT22;23125;48.156;15.954;2022-12-07T05:06:11;8.90;62.60
37232;DHT22;23125;48.156;15.954;2022-12-07T05:08:37;8.90;62.00
37232;DHT22;23125;48.156;15.954;2022-12-07T05:11:05;8.90;62.00
37232;DHT22;23125;48.156;15.954;2022-12-07T05:13:32;8.90;62.00
37232;DHT22;23125;48.156;15.954;2022-12-07T05:15:58;8.90;62.00
37232;DHT22;23125;48.156;15.954;2022-12-07T05:18:25;8.90;61.90
37232;DHT22;23125;48.156;15.954;2022-12-07T05:20:51;8.90;61.80
37232;DHT22;23125;48.156;15.954;2022-12-07T05:23:18;8.90;61.90
37232;DHT22;23125;48.156;15.954;2022-12-07T05:25:44;8.90;61.90
37232;DHT22;23125;48.156;15.954;2022-12-07T05:28:10;8.80;61.90
37232;DHT22;23125;48.156;15.954;2022-12-07T05:30:36;8.90;62.00
37232;DHT22;23125;48.156;15.954;2022-12-07T05:33:02;8.90;61.90
37232;DHT22;23125;48.156;15.954;2022-12-07T05:35:29;8.80;61.80
37232;DHT22;23125;48.156;15.954;2022-12-07T05:37:55;8.80;61.80
37232;DHT22;23125;48.156;15.954;2022-12-07T05:40:22;8.80;61.80
37232;DHT22;23125;48.156;15.954;2022-12-07T05:42:48;8.80;61.80
37232;DHT22;23125;48.156;15.954;2022-12-07T05:45:14;8.80;61.80
37232;DHT22;23125;48.156;15.954;2022-12-07T05:47:40;8.80;61.80
37232;DHT22;23125;48.156;15.954;2022-12-07T05:50:06;8.80;61.80
37232;DHT22;23125;48.156;15.954;2022-12-07T05:52:33;8.80;61.90
37232;DHT22;23125;48.156;15.954;2022-12-07T05:54:58;8.80;61.80
37232;DHT22;23125;48.156;15.954;2022-12-07T05:57:24;8.80;61.90
37232;DHT22;23125;48.156;15.954;2022-12-07T05:59:51;8.80;61.80
37232;DHT22;23125;48.156;15.954;2022-12-07T06:02:17;8.80;61.90
37232;DHT22;23125;48.156;15.954;2022-12-07T06:04:45;8.80;61.80
37232;DHT22;23125;48.156;15.954;2022-12-07T06:07:14;8.70;61.80
37232;DHT22;23125;48.156;15.954;2022-12-07T06:09:40;8.80;61.80
37232;DHT22;23125;48.156;15.954;2022-12-07T06:12:06;8.70;61.80
37232;DHT22;23125;48.156;15.954;2022-12-07T06:14:53;8.70;61.80
37232;DHT22;23125;48.156;15.954;2022-12-07T06:17:18;8.70;61.80
37232;DHT22;23125;48.156;15.954;2022-12-07T06:19:44;8.70;61.80
37232;DHT22;23125;48.156;15.954;2022-12-07T06:22:10;8.70;61.80
37232;DHT22;23125;48.156;15.954;2022-12-07T06:24:38;8.70;61.80
37232;DHT22;23125;48.156;15.954;2022-12-07T06:27:04;8.70;61.80
37232;DHT22;23125;48.156;15.954;2022-12-07T06:29:32;8.70;61.80
37232;DHT22;23125;48.156;15.954;2022-12-07T06:31:58;8.60;61.80
37232;DHT22;23125;48.156;15.954;2022-12-07T06:34:26;8.60;61.80
37232;DHT22;23125;48.156;15.954;2022-12-07T06:36:53;8.60;61.80
37232;DHT22;23125;48.156;15.954;2022-12-07T06:39:25;8.60;61.70
37232;DHT22;23125;48.156;15.954;2022-12-07T06:41:52;8.60;61.80
37232;DHT22;23125;48.156;15.954;2022-12-07T06:44:20;8.60;61.80
37232;DHT22;23125;48.156;15.954;2022-12-07T06:46:48;8.60;61.90
37232;DHT22;23125;48.156;15.954;2022-12-07T06:49:14;8.60;61.90
37232;DHT22;23125;48.156;15.954;2022-12-07T06:51:40;8.60;61.90
37232;DHT22;23125;48.156;15.954;2022-12-07T06:54:10;8.60;61.80
37232;DHT22;23125;48.156;15.954;2022-12-07T06:56:37;8.60;61.80
37232;DHT22;23125;48.156;15.954;2022-12-07T06:59:04;8.60;61.80
37232;DHT22;23125;48.156;15.954;2022-12-07T07:01:33;8.60;61.90
37232;DHT22;23125;48.156;15.954;2022-12-07T07:03:59;8.60;61.90
37232;DHT22;23125;48.156;15.954;2022-12-07T07:06:24;8.60;61.90
37232;DHT22;23125;48.156;15.954;2022-12-07T07:08:51;8.60;61.90
37232;DHT22;23125;48.156;15.954;2022-12-07T07:11:17;8.60;61.90
37232;DHT22;23125;48.156;15.954;2022-12-07T07:13:43;8.60;61.90
37232;DHT22;23125;48.156;15.954;2022-12-07T07:16:09;8.60;61.90
37232;DHT22;23125;48.156;15.954;2022-12-07T07:18:36;8.60;61.90
37232;DHT22;23125;48.156;15.954;2022-12-07T07:21:02;8.60;61.90
37232;DHT22;23125;48.156;15.954;2022-12-07T07:23:28;8.60;61.90
37232;DHT22;23125;48.156;15.954;2022-12-07T07:25:54;8.60;62.00
37232;DHT22;23125;48.156;15.954;2022-12-07T07:28:20;8.70;62.70
37232;DHT22;23125;48.156;15.954;2022-12-07T07:30:46;8.70;62.00
37232;DHT22;23125;48.156;15.954;2022-12-07T07:33:12;8.60;61.90
37232;DHT22;23125;48.156;15.954;2022-12-07T07:35:39;8.70;62.00
37232;DHT22;23125;48.156;15.954;2022-12-07T07:38:05;8.70;61.90
37232;DHT22;23125;48.156;15.954;2022-12-07T07:40:31;8.70;61.90
37232;DHT22;23125;48.156;15.954;2022-12-07T07:42:57;8.70;61.90
37232;DHT22;23125;48.156;15.954;2022-12-07T07:45:26;8.60;62.00
37232;DHT22;23125;48.156;15.954;2022-12-07T07:47:52;8.70;62.00
37232;DHT22;23125;48.156;15.954;2022-12-07T07:50:19;8.70;62.00
37232;DHT22;23125;48.156;15.954;2022-12-07T07:52:45;8.70;62.00
37232;DHT22;23125;48.156;15.954;2022-12-07T07:55:11;8.70;62.00
37232;DHT22;23125;48.156;15.954;2022-12-07T07:57:38;8.70;62.10
37232;DHT22;23125;48.156;15.954;2022-12-07T08:00:08;8.70;62.10
37232;DHT22;23125;48.156;15.954;2022-12-07T08:02:35;8.70;62.00
37232;DHT22;23125;48.156;15.954;2022-12-07T08:05:00;8.80;62.00
37232;DHT22;23125;48.156;15.954;2022-12-07T08:07:27;8.80;62.00
37232;DHT22;23125;48.156;15.954;2022-12-07T08:09:53;8.80;61.90
37232;DHT22;23125;48.156;15.954;2022-12-07T08:12:19;8.80;61.90
37232;DHT22;23125;48.156;15.954;2022-12-07T08:14:45;8.80;61.80
37232;DHT22;23125;48.156;15.954;2022-12-07T08:17:12;8.80;61.90
37232;DHT22;23125;48.156;15.954;2022-12-07T08:19:38;8.80;61.80
37232;DHT22;23125;48.156;15.954;2022-12-07T08:22:05;8.80;61.90
37232;DHT22;23125;48.156;15.954;2022-12-07T08:24:33;8.80;61.80
37232;DHT22;23125;48.156;15.954;2022-12-07T08:27:00;8.80;61.70
37232;DHT22;23125;48.156;15.954;2022-12-07T08:29:26;8.80;61.80
37232;DHT22;23125;48.156;15.954;2022-12-07T08:31:52;8.80;61.90
37232;DHT22;23125;48.156;15.954;2022-12-07T08:34:18;8.80;61.90
37232;DHT22;23125;48.156;15.954;2022-12-07T08:36:44;8.80;61.80
37232;DHT22;23125;48.156;15.954;2022-12-07T08:39:10;8.80;61.80
37232;DHT22;23125;48.156;15.954;2022-12-07T08:41:36;8.90;61.90
37232;DHT22;23125;48.156;15.954;2022-12-07T08:44:02;8.90;62.60
37232;DHT22;23125;48.156;15.954;2022-12-07T08:46:46;8.90;61.90
37232;DHT22;23125;48.156;15.954;2022-12-07T08:49:18;8.90;62.00
37232;DHT22;23125;48.156;15.954;2022-12-07T08:51:45;9.00;62.00
37232;DHT22;23125;48.156;15.954;2022-12-07T08:54:17;9.00;61.90
37232;DHT22;23125;48.156;15.954;2022-12-07T08:56:45;9.00;61.90
37232;DHT22;23125;48.156;15.954;2022-12-07T08:59:14;9.00;61.90
37232;DHT22;23125;48.156;15.954;2022-12-07T09:01:42;9.10;62.00
37232;DHT22;23125;48.156;15.954;2022-12-07T09:04:08;9.10;62.00
37232;DHT22;23125;48.156;15.954;2022-12-07T09:06:34;9.10;62.10
37232;DHT22;23125;48.156;15.954;2022-12-07T09:09:01;9.20;62.20
37232;DHT22;23125;48.156;15.954;2022-12-07T09:11:27;9.20;62.20
37232;DHT22;23125;48.156;15.954;2022-12-07T09:13:53;9.30;62.10
37232;DHT22;23125;48.156;15.954;2022-12-07T09:16:19;9.40;61.80
37232;DHT22;23125;48.156;15.954;2022-12-07T09:18:45;9.40;62.30
37232;DHT22;23125;48.156;15.954;2022-12-07T09:21:11;9.40;61.50
37232;DHT22;23125;48.156;15.954;2022-12-07T09:23:36;9.40;61.30
37232;DHT22;23125;48.156;15.954;2022-12-07T09:26:03;9.50;62.00
37232;DHT22;23125;48.156;15.954;2022-12-07T09:28:30;9.60;62.50
37232;DHT22;23125;48.156;15.954;2022-12-07T09:30:56;9.70;62.60
37232;DHT22;23125;48.156;15.954;2022-12-07T09:33:23;9.90;63.00
37232;DHT22;23125;48.156;15.954;2022-12-07T09:35:50;10.10;63.30
37232;DHT22;23125;48.156;15.954;2022-12-07T09:38:17;10.30;63.50
37232;DHT22;23125;48.156;15.954;2022-12-07T09:40:44;10.60;63.80
37232;DHT22;23125;48.156;15.954;2022-12-07T09:43:19;10.80;63.30
37232;DHT22;23125;48.156;15.954;2022-12-07T09:45:48;11.00;62.90
37232;DHT22;23125;48.156;15.954;2022-12-07T09:48:21;11.10;62.00
37232;DHT22;23125;48.156;15.954;2022-12-07T09:50:48;11.30;61.70
37232;DHT22;23125;48.156;15.954;2022-12-07T09:55:45;11.50;60.80
37232;DHT22;23125;48.156;15.954;2022-12-07T09:58:37;11.50;60.80
37232;DHT22;23125;48.156;15.954;2022-12-07T10:01:18;11.60;60.40
37232;DHT22;23125;48.156;15.954;2022-12-07T10:03:52;11.60;59.50
37232;DHT22;23125;48.156;15.954;2022-12-07T10:06:19;11.70;59.40
37232;DHT22;23125;48.156;15.954;2022-12-07T10:08:45;11.70;59.50
37232;DHT22;23125;48.156;15.954;2022-12-07T10:11:11;11.70;59.50
37232;DHT22;23125;48.156;15.954;2022-12-07T10:13:40;11.80;59.20
37232;DHT22;23125;48.156;15.954;2022-12-07T10:16:17;11.70;58.50
37232;DHT22;23125;48.156;15.954;2022-12-07T10:18:54;11.70;58.40
37232;DHT22;23125;48.156;15.954;2022-12-07T10:21:25;11.60;57.70
37232;DHT22;23125;48.156;15.954;2022-12-07T10:24:26;11.50;57.30
37232;DHT22;23125;48.156;15.954;2022-12-07T10:26:52;11.50;57.90
37232;DHT22;23125;48.156;15.954;2022-12-07T10:31:54;11.30;57.50
37232;DHT22;23125;48.156;15.954;2022-12-07T10:36:52;11.20;57.20
37232;DHT22;23125;48.156;15.954;2022-12-07T10:39:20;11.10;56.80
37232;DHT22;23125;48.156;15.954;2022-12-07T10:41:59;11.00;56.90
37232;DHT22;23125;48.156;15.954;2022-12-07T10:44:30;11.00;57.30
37232;DHT22;23125;48.156;15.954;2022-12-07T10:50:01;11.00;57.70
37232;DHT22;23125;48.156;15.954;2022-12-07T10:55:22;11.10;57.50
37232;DHT22;23125;48.156;15.954;2022-12-07T11:00:25;11.10;57.10
37232;DHT22;23125;48.156;15.954;2022-12-07T11:05:27;11.10;57.20
37232;DHT22;23125;48.156;15.954;2022-12-07T11:10:54;11.10;56.90
37232;DHT22;23125;48.156;15.954;2022-12-07T11:16:29;11.00;56.60
37232;DHT22;23125;48.156;15.954;2022-12-07T11:19:42;10.90;56.30
37232;DHT22;23125;48.156;15.954;2022-12-07T11:25:28;10.90;56.40
37232;DHT22;23125;48.156;15.954;2022-12-07T11:28:02;10.90;56.10
37232;DHT22;23125;48.156;15.954;2022-12-07T11:30:39;10.80;55.80
37232;DHT22;23125;48.156;15.954;2022-12-07T11:41:22;10.50;55.20
37232;DHT22;23125;48.156;15.954;2022-12-07T11:46:17;10.30;54.80
37232;DHT22;23125;48.156;15.954;2022-12-07T11:51:25;10.10;54.80
37232;DHT22;23125;48.156;15.954;2022-12-07T11:53:58;10.10;54.70
37232;DHT22;23125;48.156;15.954;2022-12-07T11:56:27;10.00;54.80
37232;DHT22;23125;48.156;15.954;2022-12-07T11:59:23;10.00;54.90
37232;DHT22;23125;48.156;15.954;2022-12-07T12:01:53;9.90;54.80
37232;DHT22;23125;48.156;15.954;2022-12-07T12:04:32;9.80;54.80
37232;DHT22;23125;48.156;15.954;2022-12-07T12:06:58;9.80;54.90
37232;DHT22;23125;48.156;15.954;2022-12-07T12:09:51;9.70;54.80
37232;DHT22;23125;48.156;15.954;2022-12-07T12:13:04;9.70;55.00
37232;DHT22;23125;48.156;15.954;2022-12-07T12:20:44;9.50;54.80
37232;DHT22;23125;48.156;15.954;2022-12-07T12:23:13;9.50;54.80
37232;DHT22;23125;48.156;15.954;2022-12-07T12:25:44;9.50;55.00
37232;DHT22;23125;48.156;15.954;2022-12-07T12:33:36;9.30;54.80
37232;DHT22;23125;48.156;15.954;2022-12-07T12:50:22;9.20;55.10
37232;DHT22;23125;48.156;15.954;2022-12-07T12:52:53;9.20;55.10
37232;DHT22;23125;48.156;15.954;2022-12-07T12:55:27;9.20;55.10
37232;DHT22;23125;48.156;15.954;2022-12-07T12:58:35;9.20;55.10
37232;DHT22;23125;48.156;15.954;2022-12-07T13:04:01;9.10;55.10
37232;DHT22;23125;48.156;15.954;2022-12-07T13:08:56;9.10;55.00
37232;DHT22;23125;48.156;15.954;2022-12-07T13:11:32;9.10;55.00
37232;DHT22;23125;48.156;15.954;2022-12-07T13:17:01;9.10;54.90
37232;DHT22;23125;48.156;15.954;2022-12-07T13:19:54;9.00;54.80
37232;DHT22;23125;48.156;15.954;2022-12-07T13:25:31;9.00;54.90
37232;DHT22;23125;48.156;15.954;2022-12-07T13:28:11;9.00;54.90
37232;DHT22;23125;48.156;15.954;2022-12-07T13:30:46;9.00;54.90
37232;DHT22;23125;48.156;15.954;2022-12-07T13:33:13;9.00;54.90
37232;DHT22;23125;48.156;15.954;2022-12-07T13:35:40;9.00;55.00
37232;DHT22;23125;48.156;15.954;2022-12-07T13:38:22;9.00;55.00
37232;DHT22;23125;48.156;15.954;2022-12-07T13:41:14;9.00;55.00
37232;DHT22;23125;48.156;15.954;2022-12-07T13:43:52;9.00;55.00
37232;DHT22;23125;48.156;15.954;2022-12-07T13:46:24;9.00;55.00
37232;DHT22;23125;48.156;15.954;2022-12-07T13:48:51;9.00;55.00
37232;DHT22;23125;48.156;15.954;2022-12-07T13:51:28;9.00;55.00
37232;DHT22;23125;48.156;15.954;2022-12-07T13:54:06;9.00;55.10
37232;DHT22;23125;48.156;15.954;2022-12-07T13:56:36;9.00;55.10
37232;DHT22;23125;48.156;15.954;2022-12-07T13:59:16;9.00;55.10
37232;DHT22;23125;48.156;15.954;2022-12-07T14:01:43;9.00;55.10
37232;DHT22;23125;48.156;15.954;2022-12-07T14:04:32;9.00;55.00
37232;DHT22;23125;48.156;15.954;2022-12-07T14:06:58;9.00;55.10
37232;DHT22;23125;48.156;15.954;2022-12-07T14:09:27;9.00;54.90
37232;DHT22;23125;48.156;15.954;2022-12-07T14:11:56;9.00;54.90
37232;DHT22;23125;48.156;15.954;2022-12-07T14:14:29;9.00;54.80
37232;DHT22;23125;48.156;15.954;2022-12-07T14:17:12;9.00;54.90
37232;DHT22;23125;48.156;15.954;2022-12-07T14:19:55;9.00;54.90
37232;DHT22;23125;48.156;15.954;2022-12-07T14:22:31;9.00;54.90
37232;DHT22;23125;48.156;15.954;2022-12-07T14:27:59;9.00;54.90
37232;DHT22;23125;48.156;15.954;2022-12-07T14:30:30;9.00;55.00
37232;DHT22;23125;48.156;15.954;2022-12-07T14:33:02;9.00;55.10
37232;DHT22;23125;48.156;15.954;2022-12-07T14:35:29;9.00;55.10
37232;DHT22;23125;48.156;15.954;2022-12-07T14:37:55;9.00;55.20
37232;DHT22;23125;48.156;15.954;2022-12-07T14:40:26;9.00;55.20
37232;DHT22;23125;48.156;15.954;2022-12-07T14:45:27;9.00;55.20
37232;DHT22;23125;48.156;15.954;2022-12-07T14:47:54;9.00;55.10
37232;DHT22;23125;48.156;15.954;2022-12-07T14:50:21;9.00;55.00
37232;DHT22;23125;48.156;15.954;2022-12-07T14:52:55;9.00;55.00
37232;DHT22;23125;48.156;15.954;2022-12-07T14:55:27;9.00;55.00
37232;DHT22;23125;48.156;15.954;2022-12-07T14:57:54;9.00;55.00
37232;DHT22;23125;48.156;15.954;2022-12-07T15:00:21;9.00;54.90
37232;DHT22;23125;48.156;15.954;2022-12-07T15:02:48;9.00;54.80
37232;DHT22;23125;48.156;15.954;2022-12-07T15:05:15;8.90;54.60
37232;DHT22;23125;48.156;15.954;2022-12-07T15:07:42;8.90;54.60
37232;DHT22;23125;48.156;15.954;2022-12-07T15:10:23;8.90;54.60
37232;DHT22;23125;48.156;15.954;2022-12-07T15:12:49;8.80;54.60
37232;DHT22;23125;48.156;15.954;2022-12-07T15:15:16;8.80;54.60
37232;DHT22;23125;48.156;15.954;2022-12-07T15:17:42;8.70;54.50
37232;DHT22;23125;48.156;15.954;2022-12-07T15:20:12;8.70;54.50
37232;DHT22;23125;48.156;15.954;2022-12-07T15:22:38;8.60;54.50
37232;DHT22;23125;48.156;15.954;2022-12-07T15:25:04;8.60;54.50
37232;DHT22;23125;48.156;15.954;2022-12-07T15:27:31;8.50;54.50
37232;DHT22;23125;48.156;15.954;2022-12-07T15:29:57;8.50;54.50
37232;DHT22;23125;48.156;15.954;2022-12-07T15:32:23;8.40;54.40
37232;DHT22;23125;48.156;15.954;2022-12-07T15:34:49;8.40;54.50
37232;DHT22;23125;48.156;15.954;2022-12-07T15:37:15;8.40;54.50
37232;DHT22;23125;48.156;15.954;2022-12-07T15:39:41;8.30;54.50
37232;DHT22;23125;48.156;15.954;2022-12-07T15:42:07;8.30;54.50
37232;DHT22;23125;48.156;15.954;2022-12-07T15:44:33;8.20;54.50
37232;DHT22;23125;48.156;15.954;2022-12-07T15:47:18;8.20;54.50
37232;DHT22;23125;48.156;15.954;2022-12-07T15:49:43;8.10;54.50
37232;DHT22;23125;48.156;15.954;2022-12-07T15:52:09;8.10;54.40
37232;DHT22;23125;48.156;15.954;2022-12-07T15:54:35;8.00;54.60
37232;DHT22;23125;48.156;15.954;2022-12-07T15:57:01;8.00;54.70
37232;DHT22;23125;48.156;15.954;2022-12-07T15:59:28;8.00;54.70
37232;DHT22;23125;48.156;15.954;2022-12-07T16:01:54;7.90;54.60
37232;DHT22;23125;48.156;15.954;2022-12-07T16:04:21;7.90;54.70
37232;DHT22;23125;48.156;15.954;2022-12-07T16:06:47;7.90;54.60
37232;DHT22;23125;48.156;15.954;2022-12-07T16:09:13;7.90;54.70
37232;DHT22;23125;48.156;15.954;2022-12-07T16:11:39;7.80;54.70
37232;DHT22;23125;48.156;15.954;2022-12-07T16:14:04;7.80;54.80
37232;DHT22;23125;48.156;15.954;2022-12-07T16:16:30;7.80;54.80
37232;DHT22;23125;48.156;15.954;2022-12-07T16:18:57;7.70;54.70
37232;DHT22;23125;48.156;15.954;2022-12-07T16:21:23;7.70;54.70
37232;DHT22;23125;48.156;15.954;2022-12-07T16:23:49;7.70;54.80
37232;DHT22;23125;48.156;15.954;2022-12-07T16:26:18;7.60;54.80
37232;DHT22;23125;48.156;15.954;2022-12-07T16:28:44;7.60;54.80
37232;DHT22;23125;48.156;15.954;2022-12-07T16:31:15;7.50;54.80
37232;DHT22;23125;48.156;15.954;2022-12-07T16:33:42;7.50;55.40
37232;DHT22;23125;48.156;15.954;2022-12-07T16:36:10;7.50;54.90
37232;DHT22;23125;48.156;15.954;2022-12-07T16:38:37;7.40;54.90
37232;DHT22;23125;48.156;15.954;2022-12-07T16:41:04;7.40;55.00
37232;DHT22;23125;48.156;15.954;2022-12-07T16:43:31;7.40;55.00
37232;DHT22;23125;48.156;15.954;2022-12-07T16:45:56;7.30;54.90
37232;DHT22;23125;48.156;15.954;2022-12-07T16:48:22;7.30;54.90
37232;DHT22;23125;48.156;15.954;2022-12-07T16:50:48;7.30;55.00
37232;DHT22;23125;48.156;15.954;2022-12-07T16:53:15;7.20;55.00
37232;DHT22;23125;48.156;15.954;2022-12-07T16:55:44;7.20;55.10
37232;DHT22;23125;48.156;15.954;2022-12-07T16:58:11;7.20;55.30
37232;DHT22;23125;48.156;15.954;2022-12-07T17:00:40;7.20;55.20
37232;DHT22;23125;48.156;15.954;2022-12-07T17:03:07;7.10;55.20
37232;DHT22;23125;48.156;15.954;2022-12-07T17:05:33;7.10;55.30
37232;DHT22;23125;48.156;15.954;2022-12-07T17:07:59;7.10;55.40
37232;DHT22;23125;48.156;15.954;2022-12-07T17:10:25;7.00;55.50
37232;DHT22;23125;48.156;15.954;2022-12-07T17:12:51;7.00;55.60
37232;DHT22;23125;48.156;15.954;2022-12-07T17:15:18;7.00;55.60
37232;DHT22;23125;48.156;15.954;2022-12-07T17:17:54;7.00;55.70
37232;DHT22;23125;48.156;15.954;2022-12-07T17:20:23;7.00;55.70
37232;DHT22;23125;48.156;15.954;2022-12-07T17:22:49;7.10;55.80
37232;DHT22;23125;48.156;15.954;2022-12-07T17:25:16;7.10;55.90
37232;DHT22;23125;48.156;15.954;2022-12-07T17:27:44;7.10;55.90
37232;DHT22;23125;48.156;15.954;2022-12-07T17:30:11;7.10;56.00
37232;DHT22;23125;48.156;15.954;2022-12-07T17:32:37;7.10;56.00
37232;DHT22;23125;48.156;15.954;2022-12-07T17:35:04;7.10;56.00
37232;DHT22;23125;48.156;15.954;2022-12-07T17:37:31;7.20;56.00